sensor_id;sensor_type;location;lat;lon;timestamp;temperature;humidity
14172;DHT22;7165;52.388;4.928;2023-03-14T00:00:18;11.50;99.90
14172;DHT22;7165;52.388;4.928;2023-03-14T00:02:45;11.50;99.90
14172;DHT22;7165;52.388;4.928;2023-03-14T00:05:11;11.50;99.90
14172;DHT22;7165;52.388;4.928;2023-03-14T00:07:39;11.50;99.90
14172;DHT22;7165;52.388;4.928;2023-03-14T00:10:10;11.50;99.90
14172;DHT22;7165;52.388;4.928;2023-03-14T00:12:37;11.40;99.90
14172;DHT22;7165;52.388;4.928;2023-03-14T00:15:07;11.40;99.90
14172;DHT22;7165;52.388;4.928;2023-03-14T00:17:34;11.40;99.90
14172;DHT22;7165;52.388;4.928;2023-03-14T00:20:02;11.30;99.90
14172;DHT22;7165;52.388;4.928;2023-03-14T00:22:34;11.30;99.90
14172;DHT22;7165;52.388;4.928;2023-03-14T00:25:00;11.30;99.90
14172;DHT22;7165;52.388;4.928;2023-03-14T00:27:36;11.30;99.90
14172;DHT22;7165;52.388;4.928;2023-03-14T00:30:06;11.30;99.90
14172;DHT22;7165;52.388;4.928;2023-03-14T00:32:34;11.30;99.90
14172;DHT22;7165;52.388;4.928;2023-03-14T00:35:01;11.30;99.90
14172;DHT22;7165;52.388;4.928;2023-03-14T00:37:28;11.30;99.90
14172;DHT22;7165;52.388;4.928;2023-03-14T00:39:55;11.30;99.90
14172;DHT22;7165;52.388;4.928;2023-03-14T00:42:21;11.30;99.90
14172;DHT22;7165;52.388;4.928;2023-03-14T00:44:48;11.20;99.90
14172;DHT22;7165;52.388;4.928;2023-03-14T00:47:16;11.30;99.90
14172;DHT22;7165;52.388;4.928;2023-03-14T00:49:43;11.30;99.90
14172;DHT22;7165;52.388;4.928;2023-03-14T00:52:09;11.20;99.90
14172;DHT22;7165;52.388;4.928;2023-03-14T00:54:36;11.30;99.90
14172;DHT22;7165;52.388;4.928;2023-03-14T00:57:03;11.20;99.90
14172;DHT22;7165;52.388;4.928;2023-03-14T00:59:29;11.20;99.90
14172;DHT22;7165;52.388;4.928;2023-03-14T01:01:56;11.20;99.90
14172;DHT22;7165;52.388;4.928;2023-03-14T01:04:24;11.20;99.90
14172;DHT22;7165;52.388;4.928;2023-03-14T01:06:51;11.20;99.90
14172;DHT22;7165;52.388;4.928;2023-03-14T01:09:17;11.20;99.90
14172;DHT22;7165;52.388;4.928;2023-03-14T01:11:44;11.20;99.90
14172;DHT22;7165;52.388;4.928;2023-03-14T01:14:12;11.20;99.90
14172;DHT22;7165;52.388;4.928;2023-03-14T01:16:38;11.20;99.90
14172;DHT22;7165;52.388;4.928;2023-03-14T01:19:05;11.20;99.90
14172;DHT22;7165;52.388;4.928;2023-03-14T01:21:34;11.10;99.90
14172;DHT22;7165;52.388;4.928;2023-03-14T01:24:02;11.10;99.90
14172;DHT22;7165;52.388;4.928;2023-03-14T01:26:31;11.10;99.90
14172;DHT22;7165;52.388;4.928;2023-03-14T01:28:58;11.10;99.90
14172;DHT22;7165;52.388;4.928;2023-03-14T01:31:25;11.10;99.90
14172;DHT22;7165;52.388;4.928;2023-03-14T01:33:52;11.00;99.90
14172;DHT22;7165;52.388;4.928;2023-03-14T01:36:19;11.00;99.90
14172;DHT22;7165;52.388;4.928;2023-03-14T01:38:47;11.00;99.90
14172;DHT22;7165;52.388;4.928;2023-03-14T01:41:16;11.00;99.90
14172;DHT22;7165;52.388;4.928;2023-03-14T01:43:43;11.00;99.90
14172;DHT22;7165;52.388;4.928;2023-03-14T01:46:28;10.90;99.90
14172;DHT22;7165;52.388;4.928;2023-03-14T01:48:59;10.90;99.90
14172;DHT22;7165;52.388;4.928;2023-03-14T01:51:30;10.90;99.90
14172;DHT22;7165;52.388;4.928;2023-03-14T01:54:07;10.90;99.90
14172;DHT22;7165;52.388;4.928;2023-03-14T01:56:35;10.90;99.90
14172;DHT22;7165;52.388;4.928;2023-03-14T01:59:04;10.90;99.90
14172;DHT22;7165;52.388;4.928;2023-03-14T02:01:32;10.80;99.90
14172;DHT22;7165;52.388;4.928;2023-03-14T02:04:01;10.80;99.90
14172;DHT22;7165;52.388;4.928;2023-03-14T02:06:34;10.80;99.90
14172;DHT22;7165;52.388;4.928;2023-03-14T02:09:03;10.90;99.90
14172;DHT22;7165;52.388;4.928;2023-03-14T02:11:31;10.80;99.90
14172;DHT22;7165;52.388;4.928;2023-03-14T02:13:59;10.80;99.90
14172;DHT22;7165;52.388;4.928;2023-03-14T02:16:26;10.80;99.90
14172;DHT22;7165;52.388;4.928;2023-03-14T02:18:52;10.80;99.90
14172;DHT22;7165;52.388;4.928;2023-03-14T02:21:23;10.90;99.90
14172;DHT22;7165;52.388;4.928;2023-03-14T02:24:01;10.80;99.90
14172;DHT22;7165;52.388;4.928;2023-03-14T02:26:36;10.80;99.90
14172;DHT22;7165;52.388;4.928;2023-03-14T02:29:06;10.80;99.90
14172;DHT22;7165;52.388;4.928;2023-03-14T02:31:33;10.90;99.90
14172;DHT22;7165;52.388;4.928;2023-03-14T02:34:01;10.90;99.90
14172;DHT22;7165;52.388;4.928;2023-03-14T02:36:29;10.80;99.90
14172;DHT22;7165;52.388;4.928;2023-03-14T02:39:04;10.90;99.90
14172;DHT22;7165;52.388;4.928;2023-03-14T02:41:33;10.90;99.90
14172;DHT22;7165;52.388;4.928;2023-03-14T02:44:00;10.90;99.90
14172;DHT22;7165;52.388;4.928;2023-03-14T02:46:28;10.90;99.90
14172;DHT22;7165;52.388;4.928;2023-03-14T02:48:57;10.90;99.90
14172;DHT22;7165;52.388;4.928;2023-03-14T02:51:26;10.90;99.90
14172;DHT22;7165;52.388;4.928;2023-03-14T02:54:02;10.90;99.90
14172;DHT22;7165;52.388;4.928;2023-03-14T02:56:28;10.90;99.90
14172;DHT22;7165;52.388;4.928;2023-03-14T02:58:55;10.90;99.90
14172;DHT22;7165;52.388;4.928;2023-03-14T03:01:23;10.90;99.90
14172;DHT22;7165;52.388;4.928;2023-03-14T03:03:51;10.90;99.90
14172;DHT22;7165;52.388;4.928;2023-03-14T03:06:17;10.90;99.90
14172;DHT22;7165;52.388;4.928;2023-03-14T03:08:44;10.90;99.90
14172;DHT22;7165;52.388;4.928;2023-03-14T03:11:11;10.90;99.90
14172;DHT22;7165;52.388;4.928;2023-03-14T03:13:37;10.90;99.90
14172;DHT22;7165;52.388;4.928;2023-03-14T03:16:05;10.90;99.90
14172;DHT22;7165;52.388;4.928;2023-03-14T03:18:32;10.80;99.90
14172;DHT22;7165;52.388;4.928;2023-03-14T03:21:01;10.80;99.90
14172;DHT22;7165;52.388;4.928;2023-03-14T03:23:28;10.80;99.90
14172;DHT22;7165;52.388;4.928;2023-03-14T03:25:55;10.80;99.90
14172;DHT22;7165;52.388;4.928;2023-03-14T03:28:22;10.80;99.90
14172;DHT22;7165;52.388;4.928;2023-03-14T03:30:48;10.80;99.90
14172;DHT22;7165;52.388;4.928;2023-03-14T03:33:15;10.80;99.90
14172;DHT22;7165;52.388;4.928;2023-03-14T03:35:43;10.80;99.90
14172;DHT22;7165;52.388;4.928;2023-03-14T03:38:12;10.80;99.90
14172;DHT22;7165;52.388;4.928;2023-03-14T03:40:39;10.80;99.90
14172;DHT22;7165;52.388;4.928;2023-03-14T03:43:06;10.80;99.90
14172;DHT22;7165;52.388;4.928;2023-03-14T03:45:33;10.80;99.90
14172;DHT22;7165;52.388;4.928;2023-03-14T03:47:59;10.80;99.90
14172;DHT22;7165;52.388;4.928;2023-03-14T03:50:26;10.80;99.90
14172;DHT22;7165;52.388;4.928;2023-03-14T03:52:53;10.80;99.90
14172;DHT22;7165;52.388;4.928;2023-03-14T03:55:21;10.80;99.90
14172;DHT22;7165;52.388;4.928;2023-03-14T03:57:47;10.80;99.90
14172;DHT22;7165;52.388;4.928;2023-03-14T04:00:14;10.80;99.90
14172;DHT22;7165;52.388;4.928;2023-03-14T04:02:41;10.80;99.90
14172;DHT22;7165;52.388;4.928;2023-03-14T04:05:08;10.70;99.90
14172;DHT22;7165;52.388;4.928;2023-03-14T04:07:35;10.70;99.90
14172;DHT22;7165;52.388;4.928;2023-03-14T04:10:01;10.70;99.90
14172;DHT22;7165;52.388;4.928;2023-03-14T04:12:29;10.70;99.90
14172;DHT22;7165;52.388;4.928;2023-03-14T04:14:56;10.70;99.90
14172;DHT22;7165;52.388;4.928;2023-03-14T04:17:23;10.70;99.90
14172;DHT22;7165;52.388;4.928;2023-03-14T04:19:50;10.70;99.90
14172;DHT22;7165;52.388;4.928;2023-03-14T04:22:19;10.70;99.90
14172;DHT22;7165;52.388;4.928;2023-03-14T04:24:45;10.70;99.90
14172;DHT22;7165;52.388;4.928;2023-03-14T04:27:12;10.60;99.90
14172;DHT22;7165;52.388;4.928;2023-03-14T04:29:41;10.60;99.90
14172;DHT22;7165;52.388;4.928;2023-03-14T04:32:08;10.50;99.90
14172;DHT22;7165;52.388;4.928;2023-03-14T04:34:34;10.50;99.90
14172;DHT22;7165;52.388;4.928;2023-03-14T04:37:01;10.40;99.90
14172;DHT22;7165;52.388;4.928;2023-03-14T04:39:28;10.40;99.90
14172;DHT22;7165;52.388;4.928;2023-03-14T04:41:55;10.40;99.90
14172;DHT22;7165;52.388;4.928;2023-03-14T04:44:21;10.30;99.90
14172;DHT22;7165;52.388;4.928;2023-03-14T04:46:49;10.30;99.90
14172;DHT22;7165;52.388;4.928;2023-03-14T04:49:16;10.20;99.90
14172;DHT22;7165;52.388;4.928;2023-03-14T04:51:43;10.20;99.90
14172;DHT22;7165;52.388;4.928;2023-03-14T04:54:09;10.20;99.90
14172;DHT22;7165;52.388;4.928;2023-03-14T04:56:36;10.10;99.90
14172;DHT22;7165;52.388;4.928;2023-03-14T04:59:03;10.10;99.90
14172;DHT22;7165;52.388;4.928;2023-03-14T05:01:30;10.10;99.90
14172;DHT22;7165;52.388;4.928;2023-03-14T05:03:58;10.10;99.90
14172;DHT22;7165;52.388;4.928;2023-03-14T05:06:25;10.10;99.90
14172;DHT22;7165;52.388;4.928;2023-03-14T05:08:52;10.10;99.90
14172;DHT22;7165;52.388;4.928;2023-03-14T05:11:18;10.00;99.90
14172;DHT22;7165;52.388;4.928;2023-03-14T05:13:45;10.00;99.90
14172;DHT22;7165;52.388;4.928;2023-03-14T05:16:11;10.00;99.90
14172;DHT22;7165;52.388;4.928;2023-03-14T05:18:38;10.00;99.90
14172;DHT22;7165;52.388;4.928;2023-03-14T05:21:06;9.90;99.90
14172;DHT22;7165;52.388;4.928;2023-03-14T05:23:33;9.90;99.90
14172;DHT22;7165;52.388;4.928;2023-03-14T05:26:00;9.90;99.90
14172;DHT22;7165;52.388;4.928;2023-03-14T05:28:26;9.90;99.90
14172;DHT22;7165;52.388;4.928;2023-03-14T05:30:53;9.90;99.90
14172;DHT22;7165;52.388;4.928;2023-03-14T05:33:20;9.90;99.90
14172;DHT22;7165;52.388;4.928;2023-03-14T05:35:47;9.90;99.90
14172;DHT22;7165;52.388;4.928;2023-03-14T05:38:15;9.90;99.90
14172;DHT22;7165;52.388;4.928;2023-03-14T05:40:41;9.90;99.90
14172;DHT22;7165;52.388;4.928;2023-03-14T05:43:08;9.90;99.90
14172;DHT22;7165;52.388;4.928;2023-03-14T05:45:35;9.70;99.90
14172;DHT22;7165;52.388;4.928;2023-03-14T05:48:01;9.60;99.90
14172;DHT22;7165;52.388;4.928;2023-03-14T05:50:28;9.40;99.90
14172;DHT22;7165;52.388;4.928;2023-03-14T05:52:55;9.20;99.90
14172;DHT22;7165;52.388;4.928;2023-03-14T05:55:23;9.10;99.90
14172;DHT22;7165;52.388;4.928;2023-03-14T05:57:49;9.10;99.90
14172;DHT22;7165;52.388;4.928;2023-03-14T06:00:17;9.00;99.90
14172;DHT22;7165;52.388;4.928;2023-03-14T06:02:44;8.90;99.90
14172;DHT22;7165;52.388;4.928;2023-03-14T06:05:10;8.80;99.90
14172;DHT22;7165;52.388;4.928;2023-03-14T06:07:37;8.80;99.90
14172;DHT22;7165;52.388;4.928;2023-03-14T06:10:03;8.70;99.90
14172;DHT22;7165;52.388;4.928;2023-03-14T06:12:31;8.60;99.90
14172;DHT22;7165;52.388;4.928;2023-03-14T06:14:58;8.60;99.90
14172;DHT22;7165;52.388;4.928;2023-03-14T06:17:24;8.60;99.90
14172;DHT22;7165;52.388;4.928;2023-03-14T06:19:51;8.50;99.90
14172;DHT22;7165;52.388;4.928;2023-03-14T06:22:18;8.50;99.90
14172;DHT22;7165;52.388;4.928;2023-03-14T06:24:45;8.40;99.90
14172;DHT22;7165;52.388;4.928;2023-03-14T06:27:11;8.40;99.90
14172;DHT22;7165;52.388;4.928;2023-03-14T06:29:39;8.30;99.90
14172;DHT22;7165;52.388;4.928;2023-03-14T06:32:06;8.30;99.90
14172;DHT22;7165;52.388;4.928;2023-03-14T06:34:33;8.20;99.90
14172;DHT22;7165;52.388;4.928;2023-03-14T06:36:59;8.20;99.90
14172;DHT22;7165;52.388;4.928;2023-03-14T06:39:26;8.20;99.90
14172;DHT22;7165;52.388;4.928;2023-03-14T06:41:53;8.20;99.90
14172;DHT22;7165;52.388;4.928;2023-03-14T06:44:19;8.10;99.90
14172;DHT22;7165;52.388;4.928;2023-03-14T06:46:47;8.10;99.90
14172;DHT22;7165;52.388;4.928;2023-03-14T06:49:14;8.10;99.90
14172;DHT22;7165;52.388;4.928;2023-03-14T06:51:41;8.00;99.90
14172;DHT22;7165;52.388;4.928;2023-03-14T06:54:08;8.00;99.90
14172;DHT22;7165;52.388;4.928;2023-03-14T06:56:34;8.00;99.90
14172;DHT22;7165;52.388;4.928;2023-03-14T06:59:01;7.90;99.90
14172;DHT22;7165;52.388;4.928;2023-03-14T07:01:29;7.80;99.90
14172;DHT22;7165;52.388;4.928;2023-03-14T07:03:59;7.80;99.90
14172;DHT22;7165;52.388;4.928;2023-03-14T07:06:27;7.80;99.90
14172;DHT22;7165;52.388;4.928;2023-03-14T07:08:54;7.80;99.90
14172;DHT22;7165;52.388;4.928;2023-03-14T07:11:21;7.80;99.90
14172;DHT22;7165;52.388;4.928;2023-03-14T07:13:49;7.80;99.90
14172;DHT22;7165;52.388;4.928;2023-03-14T07:16:16;7.80;99.90
14172;DHT22;7165;52.388;4.928;2023-03-14T07:18:43;7.70;99.90
14172;DHT22;7165;52.388;4.928;2023-03-14T07:21:11;7.70;99.90
14172;DHT22;7165;52.388;4.928;2023-03-14T07:23:38;7.50;99.90
14172;DHT22;7165;52.388;4.928;2023-03-14T07:26:05;7.20;99.90
14172;DHT22;7165;52.388;4.928;2023-03-14T07:28:32;7.10;99.90
14172;DHT22;7165;52.388;4.928;2023-03-14T07:30:59;7.00;99.90
14172;DHT22;7165;52.388;4.928;2023-03-14T07:33:25;6.80;99.90
14172;DHT22;7165;52.388;4.928;2023-03-14T07:35:52;6.70;99.90
14172;DHT22;7165;52.388;4.928;2023-03-14T07:38:20;6.70;99.90
14172;DHT22;7165;52.388;4.928;2023-03-14T07:40:47;6.60;99.90
14172;DHT22;7165;52.388;4.928;2023-03-14T07:43:14;6.60;99.90
14172;DHT22;7165;52.388;4.928;2023-03-14T07:45:40;6.50;99.90
14172;DHT22;7165;52.388;4.928;2023-03-14T07:48:07;6.50;99.90
14172;DHT22;7165;52.388;4.928;2023-03-14T07:50:34;6.50;99.90
14172;DHT22;7165;52.388;4.928;2023-03-14T07:53:00;6.50;99.90
14172;DHT22;7165;52.388;4.928;2023-03-14T07:55:28;6.50;99.90
14172;DHT22;7165;52.388;4.928;2023-03-14T07:57:55;6.40;99.90
14172;DHT22;7165;52.388;4.928;2023-03-14T08:00:22;6.50;99.90
14172;DHT22;7165;52.388;4.928;2023-03-14T08:02:49;6.50;99.90
14172;DHT22;7165;52.388;4.928;2023-03-14T08:05:15;6.50;99.90
14172;DHT22;7165;52.388;4.928;2023-03-14T08:07:42;6.50;99.90
14172;DHT22;7165;52.388;4.928;2023-03-14T08:10:10;6.50;99.90
14172;DHT22;7165;52.388;4.928;2023-03-14T08:12:39;6.50;99.90
14172;DHT22;7165;52.388;4.928;2023-03-14T08:15:07;6.60;99.90
14172;DHT22;7165;52.388;4.928;2023-03-14T08:17:34;6.60;99.90
14172;DHT22;7165;52.388;4.928;2023-03-14T08:20:00;6.70;99.90
14172;DHT22;7165;52.388;4.928;2023-03-14T08:22:28;6.70;99.90
14172;DHT22;7165;52.388;4.928;2023-03-14T08:24:55;6.80;99.90
14172;DHT22;7165;52.388;4.928;2023-03-14T08:27:22;6.80;99.90
14172;DHT22;7165;52.388;4.928;2023-03-14T08:29:50;7.00;99.90
14172;DHT22;7165;52.388;4.928;2023-03-14T08:32:16;7.00;99.90
14172;DHT22;7165;52.388;4.928;2023-03-14T08:34:45;7.10;99.90
14172;DHT22;7165;52.388;4.928;2023-03-14T08:37:12;7.10;99.90
14172;DHT22;7165;52.388;4.928;2023-03-14T08:39:38;7.20;99.90
14172;DHT22;7165;52.388;4.928;2023-03-14T08:42:05;7.20;99.90
14172;DHT22;7165;52.388;4.928;2023-03-14T08:44:32;7.10;99.90
14172;DHT22;7165;52.388;4.928;2023-03-14T08:47:00;7.10;99.90
14172;DHT22;7165;52.388;4.928;2023-03-14T08:49:27;7.10;99.90
14172;DHT22;7165;52.388;4.928;2023-03-14T08:51:53;7.10;99.90
14172;DHT22;7165;52.388;4.928;2023-03-14T08:54:20;7.20;99.90
14172;DHT22;7165;52.388;4.928;2023-03-14T08:56:47;7.30;99.90
14172;DHT22;7165;52.388;4.928;2023-03-14T08:59:13;7.40;99.90
14172;DHT22;7165;52.388;4.928;2023-03-14T09:01:40;7.50;99.90
14172;DHT22;7165;52.388;4.928;2023-03-14T09:04:08;7.40;99.90
14172;DHT22;7165;52.388;4.928;2023-03-14T09:06:35;7.40;99.90
14172;DHT22;7165;52.388;4.928;2023-03-14T09:09:02;7.40;99.90
14172;DHT22;7165;52.388;4.928;2023-03-14T09:11:29;7.50;99.90
14172;DHT22;7165;52.388;4.928;2023-03-14T09:13:56;7.50;99.90
14172;DHT22;7165;52.388;4.928;2023-03-14T09:16:22;7.50;99.90
14172;DHT22;7165;52.388;4.928;2023-03-14T09:18:49;7.40;99.90
14172;DHT22;7165;52.388;4.928;2023-03-14T09:21:21;7.40;99.90
14172;DHT22;7165;52.388;4.928;2023-03-14T09:23:47;7.50;99.90
14172;DHT22;7165;52.388;4.928;2023-03-14T09:26:14;7.40;99.90
14172;DHT22;7165;52.388;4.928;2023-03-14T09:28:41;7.40;99.90
14172;DHT22;7165;52.388;4.928;2023-03-14T09:31:09;7.30;99.90
14172;DHT22;7165;52.388;4.928;2023-03-14T09:33:36;7.30;99.90
14172;DHT22;7165;52.388;4.928;2023-03-14T09:36:04;7.30;99.90
14172;DHT22;7165;52.388;4.928;2023-03-14T09:38:32;7.20;99.90
14172;DHT22;7165;52.388;4.928;2023-03-14T09:41:01;7.00;99.90
14172;DHT22;7165;52.388;4.928;2023-03-14T09:43:30;6.80;99.90
14172;DHT22;7165;52.388;4.928;2023-03-14T09:45:58;6.80;99.90
14172;DHT22;7165;52.388;4.928;2023-03-14T09:48:30;6.80;99.90
14172;DHT22;7165;52.388;4.928;2023-03-14T09:51:01;6.80;99.90
14172;DHT22;7165;52.388;4.928;2023-03-14T09:53:44;7.00;99.90
14172;DHT22;7165;52.388;4.928;2023-03-14T09:56:14;7.10;99.90
14172;DHT22;7165;52.388;4.928;2023-03-14T09:58:44;7.20;99.90
14172;DHT22;7165;52.388;4.928;2023-03-14T10:01:16;7.40;99.90
14172;DHT22;7165;52.388;4.928;2023-03-14T10:03:45;7.50;99.90
14172;DHT22;7165;52.388;4.928;2023-03-14T10:06:13;7.50;99.90
14172;DHT22;7165;52.388;4.928;2023-03-14T10:08:40;7.60;99.90
14172;DHT22;7165;52.388;4.928;2023-03-14T10:11:14;7.50;99.90
14172;DHT22;7165;52.388;4.928;2023-03-14T10:13:49;7.50;99.90
14172;DHT22;7165;52.388;4.928;2023-03-14T10:16:28;7.60;99.90
14172;DHT22;7165;52.388;4.928;2023-03-14T10:19:01;7.60;99.90
14172;DHT22;7165;52.388;4.928;2023-03-14T10:21:30;7.60;99.90
14172;DHT22;7165;52.388;4.928;2023-03-14T10:24:08;7.60;99.90
14172;DHT22;7165;52.388;4.928;2023-03-14T10:26:37;7.70;99.90
14172;DHT22;7165;52.388;4.928;2023-03-14T10:29:11;7.80;99.90
14172;DHT22;7165;52.388;4.928;2023-03-14T10:31:51;7.70;99.90
14172;DHT22;7165;52.388;4.928;2023-03-14T10:34:23;7.80;99.90
14172;DHT22;7165;52.388;4.928;2023-03-14T10:36:53;7.90;99.90
14172;DHT22;7165;52.388;4.928;2023-03-14T10:39:45;8.00;99.90
14172;DHT22;7165;52.388;4.928;2023-03-14T10:42:17;8.30;99.90
14172;DHT22;7165;52.388;4.928;2023-03-14T10:44:46;8.40;99.90
14172;DHT22;7165;52.388;4.928;2023-03-14T10:47:18;8.50;99.90
14172;DHT22;7165;52.388;4.928;2023-03-14T10:49:45;8.40;99.90
14172;DHT22;7165;52.388;4.928;2023-03-14T10:52:15;8.50;99.90
14172;DHT22;7165;52.388;4.928;2023-03-14T10:54:47;8.60;99.90
14172;DHT22;7165;52.388;4.928;2023-03-14T10:57:15;8.80;99.90
14172;DHT22;7165;52.388;4.928;2023-03-14T10:59:43;8.90;99.90
14172;DHT22;7165;52.388;4.928;2023-03-14T11:02:36;8.90;99.90
14172;DHT22;7165;52.388;4.928;2023-03-14T11:05:16;9.10;99.90
14172;DHT22;7165;52.388;4.928;2023-03-14T11:07:45;9.10;99.90
14172;DHT22;7165;52.388;4.928;2023-03-14T11:10:18;9.20;99.90
14172;DHT22;7165;52.388;4.928;2023-03-14T11:12:59;9.20;99.90
14172;DHT22;7165;52.388;4.928;2023-03-14T11:15:32;9.30;99.90
14172;DHT22;7165;52.388;4.928;2023-03-14T11:21:12;9.40;99.90
14172;DHT22;7165;52.388;4.928;2023-03-14T11:23:44;9.50;99.90
14172;DHT22;7165;52.388;4.928;2023-03-14T11:26:22;9.40;99.90
14172;DHT22;7165;52.388;4.928;2023-03-14T11:28:57;9.30;99.90
14172;DHT22;7165;52.388;4.928;2023-03-14T11:31:25;9.30;99.90
14172;DHT22;7165;52.388;4.928;2023-03-14T11:33:54;9.30;99.90
14172;DHT22;7165;52.388;4.928;2023-03-14T11:36:24;9.30;99.90
14172;DHT22;7165;52.388;4.928;2023-03-14T11:38:55;9.30;99.90
14172;DHT22;7165;52.388;4.928;2023-03-14T11:41:24;9.40;99.90
14172;DHT22;7165;52.388;4.928;2023-03-14T11:43:54;9.40;99.90
14172;DHT22;7165;52.388;4.928;2023-03-14T11:46:21;9.30;99.90
14172;DHT22;7165;52.388;4.928;2023-03-14T11:48:53;9.40;99.90
14172;DHT22;7165;52.388;4.928;2023-03-14T11:51:22;9.50;99.90
14172;DHT22;7165;52.388;4.928;2023-03-14T11:53:55;9.60;99.90
14172;DHT22;7165;52.388;4.928;2023-03-14T11:56:24;9.50;99.90
14172;DHT22;7165;52.388;4.928;2023-03-14T11:58:55;9.40;99.90
14172;DHT22;7165;52.388;4.928;2023-03-14T12:01:22;9.40;99.90
14172;DHT22;7165;52.388;4.928;2023-03-14T12:03:52;9.40;99.90
14172;DHT22;7165;52.388;4.928;2023-03-14T12:06:21;9.50;99.90
14172;DHT22;7165;52.388;4.928;2023-03-14T12:08:49;9.40;99.90
14172;DHT22;7165;52.388;4.928;2023-03-14T12:11:21;9.30;99.90
14172;DHT22;7165;52.388;4.928;2023-03-14T12:13:49;9.40;99.90
14172;DHT22;7165;52.388;4.928;2023-03-14T12:16:24;9.50;99.90
14172;DHT22;7165;52.388;4.928;2023-03-14T12:18:52;9.40;99.90
14172;DHT22;7165;52.388;4.928;2023-03-14T12:21:19;9.60;99.90
14172;DHT22;7165;52.388;4.928;2023-03-14T12:23:48;10.00;99.90
14172;DHT22;7165;52.388;4.928;2023-03-14T12:26:16;10.00;99.90
14172;DHT22;7165;52.388;4.928;2023-03-14T12:28:44;10.20;99.90
14172;DHT22;7165;52.388;4.928;2023-03-14T12:31:37;10.20;99.90
14172;DHT22;7165;52.388;4.928;2023-03-14T12:34:10;10.10;99.90
14172;DHT22;7165;52.388;4.928;2023-03-14T12:36:55;10.10;99.90
14172;DHT22;7165;52.388;4.928;2023-03-14T12:39:25;10.00;99.90
14172;DHT22;7165;52.388;4.928;2023-03-14T12:42:01;10.20;99.90
14172;DHT22;7165;52.388;4.928;2023-03-14T12:44:49;10.40;99.90
14172;DHT22;7165;52.388;4.928;2023-03-14T12:47:47;10.60;99.90
14172;DHT22;7165;52.388;4.928;2023-03-14T12:50:25;10.80;99.90
14172;DHT22;7165;52.388;4.928;2023-03-14T12:56:19;10.30;99.90
14172;DHT22;7165;52.388;4.928;2023-03-14T12:58:54;9.90;99.90
14172;DHT22;7165;52.388;4.928;2023-03-14T13:01:23;9.50;99.90
14172;DHT22;7165;52.388;4.928;2023-03-14T13:03:53;9.40;99.90
14172;DHT22;7165;52.388;4.928;2023-03-14T13:06:47;9.40;99.90
14172;DHT22;7165;52.388;4.928;2023-03-14T13:09:45;9.50;99.90
14172;DHT22;7165;52.388;4.928;2023-03-14T13:12:17;9.60;99.90
14172;DHT22;7165;52.388;4.928;2023-03-14T13:14:45;9.40;99.90
14172;DHT22;7165;52.388;4.928;2023-03-14T13:17:13;9.10;99.90
14172;DHT22;7165;52.388;4.928;2023-03-14T13:19:43;9.20;99.90
14172;DHT22;7165;52.388;4.928;2023-03-14T13:22:17;9.30;99.90
14172;DHT22;7165;52.388;4.928;2023-03-14T13:24:45;9.40;99.90
14172;DHT22;7165;52.388;4.928;2023-03-14T13:27:14;9.40;99.90
14172;DHT22;7165;52.388;4.928;2023-03-14T13:29:43;9.50;99.90
14172;DHT22;7165;52.388;4.928;2023-03-14T13:32:13;9.80;99.90
14172;DHT22;7165;52.388;4.928;2023-03-14T13:34:44;9.70;99.90
14172;DHT22;7165;52.388;4.928;2023-03-14T13:37:14;9.50;99.90
14172;DHT22;7165;52.388;4.928;2023-03-14T13:39:41;9.40;99.90
14172;DHT22;7165;52.388;4.928;2023-03-14T13:42:10;9.60;99.90
14172;DHT22;7165;52.388;4.928;2023-03-14T13:44:39;9.90;99.90
14172;DHT22;7165;52.388;4.928;2023-03-14T13:47:09;9.90;99.90
14172;DHT22;7165;52.388;4.928;2023-03-14T13:49:37;9.80;99.90
14172;DHT22;7165;52.388;4.928;2023-03-14T13:52:22;9.50;99.70
14172;DHT22;7165;52.388;4.928;2023-03-14T13:54:52;9.20;99.90
14172;DHT22;7165;52.388;4.928;2023-03-14T13:57:19;9.20;99.90
14172;DHT22;7165;52.388;4.928;2023-03-14T13:59:58;9.10;99.90
14172;DHT22;7165;52.388;4.928;2023-03-14T14:02:25;9.10;99.90
14172;DHT22;7165;52.388;4.928;2023-03-14T14:04:53;9.30;99.90
14172;DHT22;7165;52.388;4.928;2023-03-14T14:07:21;9.40;99.90
14172;DHT22;7165;52.388;4.928;2023-03-14T14:09:49;9.20;99.90
14172;DHT22;7165;52.388;4.928;2023-03-14T14:12:18;9.20;99.90
14172;DHT22;7165;52.388;4.928;2023-03-14T14:14:52;9.10;99.90
14172;DHT22;7165;52.388;4.928;2023-03-14T14:17:22;9.10;99.90
14172;DHT22;7165;52.388;4.928;2023-03-14T14:19:51;8.90;99.90
14172;DHT22;7165;52.388;4.928;2023-03-14T14:22:21;8.80;99.90
14172;DHT22;7165;52.388;4.928;2023-03-14T14:24:48;8.60;99.90
14172;DHT22;7165;52.388;4.928;2023-03-14T14:27:19;8.60;99.90
14172;DHT22;7165;52.388;4.928;2023-03-14T14:29:59;8.70;99.90
14172;DHT22;7165;52.388;4.928;2023-03-14T14:32:27;8.70;99.90
14172;DHT22;7165;52.388;4.928;2023-03-14T14:35:00;8.70;99.90
14172;DHT22;7165;52.388;4.928;2023-03-14T14:37:31;8.60;99.90
14172;DHT22;7165;52.388;4.928;2023-03-14T14:40:00;8.60;99.90
14172;DHT22;7165;52.388;4.928;2023-03-14T14:42:29;8.70;99.90
14172;DHT22;7165;52.388;4.928;2023-03-14T14:44:57;8.80;99.90
14172;DHT22;7165;52.388;4.928;2023-03-14T14:47:25;8.80;99.90
14172;DHT22;7165;52.388;4.928;2023-03-14T14:49:53;8.90;99.90
14172;DHT22;7165;52.388;4.928;2023-03-14T14:52:21;8.70;99.90
14172;DHT22;7165;52.388;4.928;2023-03-14T14:54:51;8.50;99.90
14172;DHT22;7165;52.388;4.928;2023-03-14T14:57:20;8.40;99.90
14172;DHT22;7165;52.388;4.928;2023-03-14T14:59:47;8.30;99.90
14172;DHT22;7165;52.388;4.928;2023-03-14T15:02:24;8.20;99.90
14172;DHT22;7165;52.388;4.928;2023-03-14T15:04:53;8.20;99.90
14172;DHT22;7165;52.388;4.928;2023-03-14T15:07:19;8.30;99.90
14172;DHT22;7165;52.388;4.928;2023-03-14T15:09:46;8.20;99.90
14172;DHT22;7165;52.388;4.928;2023-03-14T15:12:14;8.20;99.90
14172;DHT22;7165;52.388;4.928;2023-03-14T15:14:40;8.20;99.90
14172;DHT22;7165;52.388;4.928;2023-03-14T15:17:08;8.20;99.90
14172;DHT22;7165;52.388;4.928;2023-03-14T15:19:35;8.20;99.90
14172;DHT22;7165;52.388;4.928;2023-03-14T15:22:02;8.10;99.90
14172;DHT22;7165;52.388;4.928;2023-03-14T15:24:28;8.10;99.90
14172;DHT22;7165;52.388;4.928;2023-03-14T15:26:55;8.00;99.90
14172;DHT22;7165;52.388;4.928;2023-03-14T15:29:23;7.80;99.90
14172;DHT22;7165;52.388;4.928;2023-03-14T15:31:49;7.70;99.90
14172;DHT22;7165;52.388;4.928;2023-03-14T15:34:16;7.70;99.90
14172;DHT22;7165;52.388;4.928;2023-03-14T15:36:42;7.70;99.90
14172;DHT22;7165;52.388;4.928;2023-03-14T15:39:09;7.60;99.90
14172;DHT22;7165;52.388;4.928;2023-03-14T15:41:36;7.60;99.90
14172;DHT22;7165;52.388;4.928;2023-03-14T15:44:02;7.60;99.90
14172;DHT22;7165;52.388;4.928;2023-03-14T15:46:30;7.60;99.90
14172;DHT22;7165;52.388;4.928;2023-03-14T15:48:57;7.60;99.90
14172;DHT22;7165;52.388;4.928;2023-03-14T15:51:23;7.60;99.90
14172;DHT22;7165;52.388;4.928;2023-03-14T15:53:50;7.60;99.90
14172;DHT22;7165;52.388;4.928;2023-03-14T15:56:17;7.60;99.90
14172;DHT22;7165;52.388;4.928;2023-03-14T15:58:44;7.60;99.90
14172;DHT22;7165;52.388;4.928;2023-03-14T16:01:12;7.60;99.90
14172;DHT22;7165;52.388;4.928;2023-03-14T16:03:42;7.60;99.90
14172;DHT22;7165;52.388;4.928;2023-03-14T16:06:10;7.50;99.90
14172;DHT22;7165;52.388;4.928;2023-03-14T16:08:36;7.60;99.90
14172;DHT22;7165;52.388;4.928;2023-03-14T16:11:03;7.50;99.90